Time;durP1;ratioP1;P1;durP2;ratioP2;P2;SDS_P1;SDS_P2;PMS_P1;PMS_P2;Temp;Humidity;BMP_temperature;BMP_pressure;BME280_temperature;BME280_humidity;BME280_pressure;Samples;Min_cycle;Max_cycle;Signal;HPM_P1;HPM_P2
2021/04/05 00:00:19;;;;;;;8.32;5.00;;;;;;;-1.59;86.47;92888.41;2098616;28;20020;-82
2021/04/05 00:01:20;;;;;;;10.18;5.13;;;;;;;-1.57;86.67;92894.09;2107766;28;20027;-82
2021/04/05 00:02:21;;;;;;;11.50;4.90;;;;;;;-1.49;86.43;92897.63;2098425;28;20126;-81
2021/04/05 00:03:22;;;;;;;7.65;4.50;;;;;;;-1.53;85.65;92900.16;2110389;28;20825;-82
2021/04/05 00:04:24;;;;;;;7.95;5.05;;;;;;;-1.53;86.12;92900.16;2091573;27;21051;-81
2021/04/05 00:05:35;;;;;;;8.68;4.85;;;;;;;-1.56;86.44;92902.72;2090114;28;20463;-81
2021/04/05 00:06:35;;;;;;;8.65;5.10;;;;;;;-1.59;86.53;92898.91;2102853;27;21033;-80
2021/04/05 00:07:35;;;;;;;7.40;4.65;;;;;;;-1.74;87.08;92894.50;2106694;28;20427;-82
2021/04/05 00:08:36;;;;;;;9.05;4.47;;;;;;;-1.75;87.91;92887.00;2106455;28;20027;-81
2021/04/05 00:09:39;;;;;;;14.43;4.63;;;;;;;-1.77;87.33;92888.06;2098163;28;20127;-81
2021/04/05 00:10:46;;;;;;;7.93;4.30;;;;;;;-1.79;87.02;92890.28;2098948;28;20493;-82
2021/04/05 00:11:47;;;;;;;7.75;4.95;;;;;;;-1.74;87.22;92893.72;2096094;28;20542;-81
2021/04/05 00:12:49;;;;;;;7.95;5.10;;;;;;;-1.71;86.93;92893.81;2089943;28;20773;-80
2021/04/05 00:13:49;;;;;;;12.30;5.95;;;;;;;-1.71;87.07;92895.66;2089927;28;20493;-81
2021/04/05 00:14:50;;;;;;;10.30;5.47;;;;;;;-1.70;86.88;92886.72;2081554;28;20532;-81
2021/04/05 00:15:51;;;;;;;9.25;5.13;;;;;;;-1.72;87.24;92886.28;2081747;28;20076;-81
2021/04/05 00:16:51;;;;;;;9.23;4.93;;;;;;;-1.80;87.02;92891.41;2081478;28;20044;-81
2021/04/05 00:17:52;;;;;;;8.63;4.97;;;;;;;-1.78;87.42;92883.19;2104804;28;20420;-80
2021/04/05 00:18:52;;;;;;;7.53;4.97;;;;;;;-1.81;87.12;92886.47;2106561;28;20032;-81
2021/04/05 00:19:53;;;;;;;9.63;4.70;;;;;;;-1.81;87.96;92887.22;2106612;28;20505;-81
2021/04/05 00:20:58;;;;;;;9.20;4.43;;;;;;;-1.80;87.12;92885.38;2114934;28;20035;-82
2021/04/05 00:21:59;;;;;;;9.13;4.93;;;;;;;-1.84;87.47;92889.81;2113611;27;20026;-82
2021/04/05 00:22:59;;;;;;;7.95;4.85;;;;;;;-1.82;87.53;92884.97;2114864;28;20437;-82
2021/04/05 00:23:59;;;;;;;12.15;4.85;;;;;;;-1.84;87.50;92881.94;2114989;28;20020;-82
2021/04/05 00:25:00;;;;;;;8.23;4.25;;;;;;;-1.79;87.68;92877.19;2097863;28;20084;-82
2021/04/05 00:26:01;;;;;;;7.57;5.30;;;;;;;-1.76;87.02;92880.97;2097818;28;20501;-81
2021/04/05 00:27:02;;;;;;;10.25;5.15;;;;;;;-1.78;87.24;92881.31;2089854;28;20039;-82
2021/04/05 00:28:03;;;;;;;10.43;5.05;;;;;;;-1.83;87.75;92875.59;2081493;28;21011;-82
2021/04/05 00:29:03;;;;;;;9.20;4.57;;;;;;;-1.78;87.59;92867.47;2081591;28;20044;-82
2021/04/05 00:30:26;;;;;;;7.65;4.30;;;;;;;-1.80;87.67;92872.28;2099791;28;20123;-82
2021/04/05 00:31:26;;;;;;;11.05;5.05;;;;;;;-1.83;88.17;92867.75;2113742;28;20023;-82
2021/04/05 00:32:27;;;;;;;5.30;4.10;;;;;;;-1.80;88.19;92865.19;2114776;28;20454;-81
2021/04/05 00:33:27;;;;;;;10.25;5.90;;;;;;;-1.77;87.43;92853.25;2085863;28;20040;-80
2021/04/05 00:34:27;;;;;;;8.57;4.00;;;;;;;-1.83;88.13;92855.41;2081754;28;20626;-82
2021/04/05 00:35:30;;;;;;;9.13;4.55;;;;;;;-1.81;87.49;92860.28;2081734;28;20060;-81
2021/04/05 00:36:30;;;;;;;7.35;4.25;;;;;;;-1.83;88.27;92855.41;2081852;28;20440;-81
2021/04/05 00:37:31;;;;;;;13.13;4.95;;;;;;;-1.85;87.34;92859.44;2081545;28;20492;-82
2021/04/05 00:38:31;;;;;;;11.10;4.53;;;;;;;-1.89;87.54;92862.03;2081679;28;20032;-81
2021/04/05 00:39:32;;;;;;;9.57;4.82;;;;;;;-1.94;87.68;92862.25;2081653;28;20037;-81
2021/04/05 00:40:46;;;;;;;11.80;4.55;;;;;;;-2.00;87.64;92850.56;2089570;28;20550;-81
2021/04/05 00:41:47;;;;;;;8.15;4.63;;;;;;;-1.90;86.54;92844.75;2091306;28;20067;-82
2021/04/05 00:42:48;;;;;;;7.68;4.72;;;;;;;-1.85;86.32;92838.50;2097809;28;20561;-82
2021/04/05 00:43:49;;;;;;;5.75;4.10;;;;;;;-1.89;86.87;92842.91;2089095;28;20051;-82
2021/04/05 00:44:49;;;;;;;8.90;4.72;;;;;;;-1.90;87.15;92844.75;2081013;28;20052;-82
2021/04/05 00:45:50;;;;;;;11.20;4.95;;;;;;;-2.03;87.45;92844.13;2091813;28;20439;-81
2021/04/05 00:46:50;;;;;;;8.27;4.78;;;;;;;-1.96;87.49;92838.28;2106480;28;20411;-81
2021/04/05 00:47:53;;;;;;;7.00;4.18;;;;;;;-1.96;87.24;92832.31;2089718;28;20029;-82
2021/04/05 00:48:53;;;;;;;8.88;4.45;;;;;;;-1.95;86.86;92839.03;2081525;28;20068;-82
2021/04/05 00:49:54;;;;;;;9.10;3.97;;;;;;;-1.93;87.10;92842.84;2081480;28;20437;-82
2021/04/05 00:51:00;;;;;;;10.23;4.47;;;;;;;-1.78;86.61;92830.78;2103583;28;20027;-81
2021/04/05 00:52:04;;;;;;;8.60;4.53;;;;;;;-1.94;86.46;92837.94;2098536;28;20493;-81
2021/04/05 00:53:06;;;;;;;12.27;4.68;;;;;;;-1.95;86.58;92839.81;2098243;28;20463;-82
2021/04/05 00:54:06;;;;;;;8.27;4.88;;;;;;;-1.96;86.87;92834.91;2105076;28;20434;-82
2021/04/05 00:55:08;;;;;;;9.80;4.30;;;;;;;-2.01;86.75;92840.44;2094810;28;20912;-81
2021/04/05 00:56:09;;;;;;;6.28;4.15;;;;;;;-1.98;87.13;92837.09;2097479;28;20791;-80
2021/04/05 00:57:10;;;;;;;9.25;4.18;;;;;;;-1.88;86.51;92847.06;2097666;28;20457;-81
2021/04/05 00:58:11;;;;;;;6.32;3.97;;;;;;;-1.99;86.62;92841.59;2103637;28;20860;-82
2021/04/05 00:59:12;;;;;;;8.57;4.45;;;;;;;-1.94;86.81;92845.78;2106124;28;20499;-81
2021/04/05 01:00:28;;;;;;;7.75;4.30;;;;;;;-2.00;86.54;92847.94;2089595;28;20435;-81
2021/04/05 01:01:29;;;;;;;8.40;4.07;;;;;;;-1.97;87.24;92847.25;2091422;28;20390;-81
2021/04/05 01:02:33;;;;;;;6.32;3.95;;;;;;;-2.06;87.46;92844.84;2089728;28;20447;-81
2021/04/05 01:03:36;;;;;;;6.53;4.10;;;;;;;-1.99;85.78;92844.22;2094012;28;20447;-80
2021/04/05 01:04:37;;;;;;;6.82;4.15;;;;;;;-2.12;86.28;92840.94;2097841;28;20450;-82
2021/04/05 01:05:38;;;;;;;8.85;4.43;;;;;;;-2.12;85.33;92835.72;2090347;28;20459;-82
2021/04/05 01:06:39;;;;;;;10.27;4.40;;;;;;;-2.12;85.54;92834.97;2099725;28;20085;-82
2021/04/05 01:07:40;;;;;;;10.25;4.50;;;;;;;-2.07;86.69;92837.31;2106283;28;20496;-81
2021/04/05 01:08:41;;;;;;;6.00;4.10;;;;;;;-2.11;86.63;92837.25;2097599;28;20036;-80
2021/04/05 01:09:42;;;;;;;6.40;4.00;;;;;;;-2.08;86.78;92839.16;2097530;28;20433;-81
2021/04/05 01:10:43;;;;;;;6.28;3.85;;;;;;;-2.08;87.58;92836.53;2105956;28;20403;-82
2021/04/05 01:11:44;;;;;;;5.60;4.13;;;;;;;-2.08;88.38;92830.56;2112105;28;20396;-82
2021/04/05 01:12:44;;;;;;;10.15;4.22;;;;;;;-2.09;88.24;92823.81;2097681;28;20498;-81
2021/04/05 01:13:46;;;;;;;8.20;4.13;;;;;;;-2.12;88.51;92827.09;2097160;28;20035;-81
2021/04/05 01:14:46;;;;;;;7.93;3.67;;;;;;;-2.21;87.57;92824.69;2089298;28;20401;-81
2021/04/05 01:15:47;;;;;;;7.22;3.97;;;;;;;-2.21;88.02;92819.44;2104389;28;20438;-82
2021/04/05 01:16:48;;;;;;;9.00;3.95;;;;;;;-2.11;87.82;92821.53;2107160;28;20038;-81
2021/04/05 01:17:49;;;;;;;9.43;4.30;;;;;;;-2.11;87.59;92824.16;2091614;28;20574;-81
2021/04/05 01:18:50;;;;;;;9.13;4.00;;;;;;;-2.06;87.88;92821.28;2101545;28;20036;-82
2021/04/05 01:19:50;;;;;;;5.70;3.83;;;;;;;-2.06;87.46;92818.66;2099375;28;20427;-81
2021/04/05 01:20:51;;;;;;;8.43;4.05;;;;;;;-2.11;87.46;92821.53;2101641;28;20691;-82
2021/04/05 01:21:51;;;;;;;7.55;4.05;;;;;;;-2.15;87.19;92815.47;2107428;28;20027;-81
2021/04/05 01:22:53;;;;;;;8.10;4.00;;;;;;;-2.10;87.56;92811.81;2107821;28;20023;-83
2021/04/05 01:23:53;;;;;;;6.78;4.13;;;;;;;-2.12;87.28;92814.78;2096854;28;20571;-83
2021/04/05 01:24:54;;;;;;;6.53;4.10;;;;;;;-2.12;87.59;92820.00;2080691;28;20467;-82
2021/04/05 01:25:54;;;;;;;10.23;4.45;;;;;;;-2.14;87.59;92816.97;2091647;28;20543;-82
2021/04/05 01:26:55;;;;;;;6.75;4.10;;;;;;;-2.15;87.84;92815.47;2104895;28;20039;-81
2021/04/05 01:27:56;;;;;;;7.57;3.85;;;;;;;-2.20;87.82;92815.72;2101020;28;20027;-82
2021/04/05 01:28:56;;;;;;;5.00;3.80;;;;;;;-2.19;87.01;92809.41;2097588;28;20036;-82
2021/04/05 01:29:57;;;;;;;7.38;4.10;;;;;;;-2.31;87.35;92812.88;2089148;28;20447;-81
2021/04/05 01:30:59;;;;;;;7.65;3.65;;;;;;;-2.22;87.52;92820.56;2089022;28;20032;-82
2021/04/05 01:31:59;;;;;;;7.65;4.03;;;;;;;-2.28;87.86;92806.97;2105452;28;20579;-82
2021/04/05 01:33:08;;;;;;;6.68;3.88;;;;;;;-2.23;87.14;92808.56;2088902;28;20443;-81
2021/04/05 01:34:08;;;;;;;7.90;3.95;;;;;;;-2.28;86.87;92803.59;2090459;28;20036;-82
2021/04/05 01:35:10;;;;;;;8.43;3.83;;;;;;;-2.27;86.75;92794.66;2107048;28;20854;-82
2021/04/05 01:36:16;;;;;;;7.57;4.18;;;;;;;-2.25;87.29;92805.53;2114087;28;20069;-81
2021/04/05 01:37:16;;;;;;;7.07;3.75;;;;;;;-2.26;86.53;92798.03;2101041;28;20445;-81
2021/04/05 01:38:20;;;;;;;6.82;3.67;;;;;;;-2.24;86.80;92793.94;2097013;28;20469;-81
2021/04/05 01:39:20;;;;;;;9.10;3.85;;;;;;;-2.26;87.04;92793.53;2095762;28;20454;-81
2021/04/05 01:40:20;;;;;;;6.72;4.40;;;;;;;-2.37;86.71;92787.31;2106193;28;20486;-82
2021/04/05 01:41:31;;;;;;;10.88;3.90;;;;;;;-2.39;88.20;92789.53;2102711;28;20032;-82
2021/04/05 01:42:31;;;;;;;7.07;4.28;;;;;;;-2.37;87.82;92788.09;2082921;28;20035;-81
2021/04/05 01:43:32;;;;;;;9.70;4.07;;;;;;;-2.36;88.06;92783.63;2100483;28;20458;-81
2021/04/05 01:44:38;;;;;;;6.22;3.65;;;;;;;-2.36;88.40;92779.13;2094985;28;20067;-82
2021/04/05 01:45:39;;;;;;;7.00;4.22;;;;;;;-2.38;88.13;92777.94;2090270;28;20512;-81
2021/04/05 01:46:40;;;;;;;10.07;3.83;;;;;;;-2.43;87.95;92778.22;2108788;28;20421;-81
2021/04/05 01:47:41;;;;;;;6.28;4.25;;;;;;;-2.42;86.90;92779.72;2121644;27;20431;-82
2021/04/05 01:48:42;;;;;;;8.32;3.88;;;;;;;-2.39;87.19;92777.19;2101888;28;20036;-81
2021/04/05 01:49:43;;;;;;;6.25;4.22;;;;;;;-2.36;87.31;92778.38;2100413;28;20447;-81
2021/04/05 01:50:43;;;;;;;7.80;3.63;;;;;;;-2.39;87.73;92773.81;2091685;28;20475;-82
2021/04/05 01:51:44;;;;;;;6.63;3.50;;;;;;;-2.36;87.80;92770.53;2092003;28;20032;-81
2021/04/05 01:52:44;;;;;;;6.32;3.97;;;;;;;-2.40;87.18;92778.31;2092199;28;20040;-82
2021/04/05 01:53:46;;;;;;;7.85;3.97;;;;;;;-2.34;87.02;92782.16;2113825;28;20031;-82
2021/04/05 01:54:46;;;;;;;4.55;3.38;;;;;;;-2.36;87.16;92773.91;2106257;28;20020;-81
2021/04/05 01:55:47;;;;;;;8.15;3.60;;;;;;;-2.33;87.12;92775.84;2096724;28;20520;-81
2021/04/05 01:56:48;;;;;;;6.82;3.42;;;;;;;-2.39;87.26;92771.22;2097483;28;20037;-82
2021/04/05 01:57:50;;;;;;;10.02;4.35;;;;;;;-2.46;87.28;92773.66;2105830;28;20059;-81
2021/04/05 01:58:53;;;;;;;5.38;3.50;;;;;;;-2.34;86.99;92765.69;2114093;28;20983;-81
2021/04/05 01:59:53;;;;;;;10.52;4.05;;;;;;;-2.31;86.09;92775.50;2105925;28;20445;-82
2021/04/05 02:00:55;;;;;;;6.68;3.40;;;;;;;-2.30;86.00;92769.16;2105813;28;20449;-82
2021/04/05 02:01:56;;;;;;;7.35;3.50;;;;;;;-2.35;87.07;92772.78;2105792;28;20023;-82
2021/04/05 02:04:19;;;;;;;4.55;3.25;;;;;;;-2.34;86.26;92781.41;2121452;27;20189;-80
2021/04/05 02:05:23;;;;;;;6.22;4.13;;;;;;;-2.33;86.78;92778.47;2104793;28;20105;-79
2021/04/05 02:06:25;;;;;;;4.63;3.20;;;;;;;-2.36;86.81;92773.16;2088716;28;20025;-80
2021/04/05 02:07:26;;;;;;;7.60;3.90;;;;;;;-2.35;87.16;92778.03;2088201;28;20455;-79
2021/04/05 02:08:28;;;;;;;6.15;4.20;;;;;;;-2.37;86.83;92771.59;2088109;28;20454;-80
2021/04/05 02:09:29;;;;;;;7.82;3.92;;;;;;;-2.42;86.99;92766.66;2096178;28;20803;-80
2021/04/05 02:10:30;;;;;;;8.13;3.50;;;;;;;-2.55;86.58;92769.41;2096500;28;20446;-80
2021/04/05 02:11:36;;;;;;;6.75;3.65;;;;;;;-2.51;87.25;92773.94;2096313;28;20115;-79
2021/04/05 02:12:37;;;;;;;6.13;3.97;;;;;;;-2.50;87.43;92757.13;2097661;28;20106;-78
2021/04/05 02:13:39;;;;;;;6.35;3.72;;;;;;;-2.59;87.83;92758.09;2104856;28;20470;-79
2021/04/05 02:14:39;;;;;;;6.65;3.50;;;;;;;-2.58;87.43;92751.78;2112812;28;20972;-79
2021/04/05 02:15:40;;;;;;;7.72;3.50;;;;;;;-2.56;87.53;92754.78;2104858;28;20454;-79
2021/04/05 02:16:45;;;;;;;6.75;3.60;;;;;;;-2.50;86.79;92752.69;2093682;28;20104;-79
2021/04/05 02:17:46;;;;;;;7.45;3.90;;;;;;;-2.61;87.30;92749.81;2088318;28;20033;-79
2021/04/05 02:18:48;;;;;;;11.95;4.07;;;;;;;-2.54;87.19;92751.84;2088021;28;20923;-80
2021/04/05 02:19:48;;;;;;;8.93;4.28;;;;;;;-2.55;88.02;92747.69;2096205;28;20439;-79
2021/04/05 02:20:49;;;;;;;6.85;3.70;;;;;;;-2.55;88.03;92740.63;2096358;28;20439;-80
2021/04/05 02:21:52;;;;;;;8.23;3.65;;;;;;;-2.57;88.27;92742.81;2088245;28;20057;-80
2021/04/05 02:22:53;;;;;;;7.85;3.78;;;;;;;-2.57;87.46;92736.81;2087977;28;20446;-80
2021/04/05 02:23:55;;;;;;;6.60;3.30;;;;;;;-2.69;87.25;92739.56;2087904;28;20514;-80
2021/04/05 02:24:56;;;;;;;6.35;3.65;;;;;;;-2.63;87.90;92731.09;2088019;28;20455;-79
2021/04/05 02:26:07;;;;;;;7.00;3.20;;;;;;;-2.62;88.42;92730.00;2104155;28;20418;-80
2021/04/05 02:27:08;;;;;;;9.13;3.63;;;;;;;-2.59;88.13;92726.72;2113220;28;20053;-79
2021/04/05 02:28:09;;;;;;;9.75;4.18;;;;;;;-2.69;88.34;92721.25;2103101;28;20434;-80
2021/04/05 02:29:09;;;;;;;8.07;3.72;;;;;;;-2.71;88.76;92710.38;2096221;28;20441;-80
2021/04/05 02:30:22;;;;;;;5.97;3.78;;;;;;;-2.72;88.80;92709.63;2087927;28;20163;-79
2021/04/05 02:31:23;;;;;;;9.13;3.83;;;;;;;-2.66;88.97;92703.00;2091254;28;20048;-79
2021/04/05 02:32:24;;;;;;;7.07;4.05;;;;;;;-2.63;89.13;92712.81;2096384;28;20458;-80
2021/04/05 02:33:25;;;;;;;8.43;3.67;;;;;;;-2.64;88.86;92705.28;2096074;28;20510;-79
2021/04/05 02:34:26;;;;;;;8.40;3.67;;;;;;;-2.70;87.95;92702.19;2087748;28;20052;-79
2021/04/05 02:35:30;;;;;;;5.82;3.72;;;;;;;-2.62;88.81;92710.94;2083383;28;20017;-79
2021/04/05 02:36:33;;;;;;;5.97;3.60;;;;;;;-2.67;88.20;92701.50;2104965;28;20024;-79
2021/04/05 02:37:33;;;;;;;6.53;3.95;;;;;;;-2.71;88.69;92699.91;2096550;28;20490;-80
2021/04/05 02:38:46;;;;;;;5.75;3.88;;;;;;;-2.63;88.55;92694.50;2096035;28;20530;-79
2021/04/05 02:39:46;;;;;;;5.85;3.58;;;;;;;-2.68;88.54;92704.44;2105930;28;20050;-80
2021/04/05 02:40:47;;;;;;;7.15;3.95;;;;;;;-2.69;89.23;92700.31;2104538;28;20969;-79
2021/04/05 02:41:49;;;;;;;7.25;3.95;;;;;;;-2.68;88.85;92696.59;2095864;28;20029;-80
2021/04/05 02:42:52;;;;;;;8.35;4.07;;;;;;;-2.72;89.35;92693.16;2104515;28;20115;-80
2021/04/05 02:43:53;;;;;;;9.00;3.70;;;;;;;-2.75;89.67;92701.69;2112679;28;20438;-79
2021/04/05 02:44:55;;;;;;;6.10;3.80;;;;;;;-2.72;88.97;92693.94;2104348;28;20887;-82
2021/04/05 02:45:56;;;;;;;8.70;4.00;;;;;;;-2.70;88.92;92694.34;2088062;28;20992;-79
2021/04/05 02:46:56;;;;;;;8.63;4.07;;;;;;;-2.76;89.04;92690.47;2087674;28;20515;-79
2021/04/05 02:48:01;;;;;;;6.15;4.30;;;;;;;-2.71;88.80;92700.66;2087867;28;20029;-78
2021/04/05 02:49:06;;;;;;;10.93;4.20;;;;;;;-2.73;87.92;92691.63;2096920;28;20165;-80
2021/04/05 02:50:07;;;;;;;5.97;3.70;;;;;;;-2.75;87.64;92686.75;2096537;28;20497;-78
2021/04/05 02:51:08;;;;;;;5.25;3.55;;;;;;;-2.86;88.20;92701.47;2088089;28;20439;-80
2021/04/05 02:52:09;;;;;;;7.07;3.95;;;;;;;-2.85;86.65;92687.31;2087618;28;20447;-79
2021/04/05 02:53:10;;;;;;;6.82;3.88;;;;;;;-2.88;86.23;92695.81;2087634;28;20060;-79
2021/04/05 02:54:11;;;;;;;6.82;3.47;;;;;;;-2.82;86.34;92699.66;2087538;28;20069;-79
2021/04/05 02:55:13;;;;;;;7.68;3.72;;;;;;;-2.93;87.45;92696.84;2079441;28;20574;-79
2021/04/05 02:56:14;;;;;;;7.10;3.38;;;;;;;-2.82;87.96;92682.13;2094124;28;20458;-80
2021/04/05 02:57:15;;;;;;;5.75;3.30;;;;;;;-2.92;87.95;92679.28;2104278;28;20437;-80
2021/04/05 02:58:16;;;;;;;10.93;4.03;;;;;;;-2.96;88.57;92681.84;2104077;28;20472;-78
2021/04/05 02:59:20;;;;;;;6.00;3.60;;;;;;;-2.92;88.50;92677.44;2095905;28;20021;-80
2021/04/05 03:00:21;;;;;;;7.82;3.92;;;;;;;-2.87;88.55;92677.16;2088690;28;20037;-79
2021/04/05 03:01:24;;;;;;;6.88;3.75;;;;;;;-2.93;88.79;92670.69;2095950;28;20863;-80
2021/04/05 03:02:25;;;;;;;6.65;3.70;;;;;;;-2.91;88.85;92681.56;2088315;28;20455;-79
2021/04/05 03:03:25;;;;;;;6.45;3.60;;;;;;;-2.92;89.78;92674.06;2087648;28;20443;-80
2021/04/05 03:04:29;;;;;;;6.13;3.72;;;;;;;-2.94;89.71;92671.81;2086213;28;20394;-80
2021/04/05 03:05:32;;;;;;;7.07;3.83;;;;;;;-2.91;89.61;92676.34;2088222;28;20127;-80
2021/04/05 03:06:32;;;;;;;7.97;4.13;;;;;;;-2.95;90.58;92678.13;2087906;28;20451;-80
2021/04/05 03:07:34;;;;;;;8.93;4.10;;;;;;;-2.89;90.46;92671.53;2094346;28;20431;-82
2021/04/05 03:08:35;;;;;;;8.25;3.90;;;;;;;-2.89;90.36;92678.63;2087535;28;20458;-80
2021/04/05 03:09:35;;;;;;;10.40;4.18;;;;;;;-2.92;91.13;92677.44;2104082;28;20529;-80
2021/04/05 03:10:37;;;;;;;10.77;4.25;;;;;;;-2.89;91.01;92676.00;2095671;28;20025;-79
2021/04/05 03:11:39;;;;;;;7.05;3.95;;;;;;;-2.89;90.82;92676.75;2089527;28;20033;-80
2021/04/05 03:12:40;;;;;;;8.95;4.30;;;;;;;-2.98;90.79;92670.97;2096018;28;20503;-78
2021/04/05 03:13:41;;;;;;;6.57;4.28;;;;;;;-2.93;90.68;92668.09;2104258;28;20501;-79
2021/04/05 03:14:41;;;;;;;7.75;4.28;;;;;;;-2.96;90.18;92668.75;2112468;28;20441;-83
2021/04/05 03:15:42;;;;;;;7.07;4.32;;;;;;;-2.94;91.07;92663.97;2090026;28;20029;-80
2021/04/05 03:16:45;;;;;;;10.75;4.10;;;;;;;-2.95;90.43;92664.28;2090585;28;20033;-79
2021/04/05 03:17:48;;;;;;;7.07;3.88;;;;;;;-2.92;90.46;92666.22;2098879;28;20439;-82
2021/04/05 03:18:51;;;;;;;8.30;3.95;;;;;;;-2.97;90.43;92661.25;2090289;28;20466;-82
2021/04/05 03:19:53;;;;;;;8.20;3.97;;;;;;;-2.98;90.30;92662.38;2082720;28;20543;-83
2021/04/05 03:20:54;;;;;;;8.07;3.50;;;;;;;-2.99;90.31;92663.44;2082077;28;20463;-81
2021/04/05 03:21:55;;;;;;;8.60;4.20;;;;;;;-2.96;90.66;92660.16;2082041;28;20442;-80
2021/04/05 03:22:56;;;;;;;10.50;4.03;;;;;;;-2.94;90.65;92650.88;2082181;28;20025;-80
2021/04/05 03:24:00;;;;;;;7.63;4.47;;;;;;;-2.97;90.34;92648.19;2081844;28;20464;-80
2021/04/05 03:25:01;;;;;;;9.00;4.10;;;;;;;-2.92;90.13;92643.44;2090585;28;20536;-82
2021/04/05 03:26:01;;;;;;;4.88;4.00;;;;;;;-2.93;89.67;92644.56;2095103;28;20458;-82
2021/04/05 03:27:02;;;;;;;6.65;3.67;;;;;;;-2.94;90.33;92640.44;2089925;28;20750;-82
2021/04/05 03:28:03;;;;;;;9.18;3.95;;;;;;;-2.96;89.66;92647.84;2082065;28;20025;-82
2021/04/05 03:29:06;;;;;;;8.15;3.58;;;;;;;-2.93;89.93;92643.81;2081807;28;20032;-83
2021/04/05 03:30:10;;;;;;;8.35;4.00;;;;;;;-2.91;89.78;92639.72;2089260;28;20496;-83
2021/04/05 03:31:21;;;;;;;7.90;3.55;;;;;;;-2.86;89.85;92649.16;2074452;28;20978;-82
2021/04/05 03:32:23;;;;;;;9.52;4.18;;;;;;;-2.85;90.26;92655.94;2083444;28;20471;-83
2021/04/05 03:33:45;;;;;;;8.13;3.95;;;;;;;-2.89;90.28;92636.78;2073790;28;21100;-83
2021/04/05 03:34:54;;;;;;;8.05;3.67;;;;;;;-2.94;90.42;92647.50;2085480;28;20533;-82
2021/04/05 03:36:02;;;;;;;6.75;4.00;;;;;;;-2.89;89.93;92652.47;2084031;28;20502;-82
2021/04/05 03:37:13;;;;;;;6.97;3.90;;;;;;;-2.94;90.44;92640.44;2075656;28;20457;-82
2021/04/05 03:38:15;;;;;;;6.30;3.25;;;;;;;-2.94;89.44;92648.28;2098863;28;20427;-82
2021/04/05 03:39:16;;;;;;;5.75;3.40;;;;;;;-2.95;90.19;92644.13;2098171;28;20446;-80
2021/04/05 03:40:17;;;;;;;10.57;4.00;;;;;;;-2.96;90.60;92642.63;2083882;28;20447;-80
2021/04/05 03:41:34;;;;;;;7.15;3.28;;;;;;;-2.87;90.24;92637.19;2082100;28;20460;-80
2021/04/05 03:42:37;;;;;;;4.75;3.67;;;;;;;-2.90;89.58;92645.72;2078302;28;20034;-81
2021/04/05 03:43:43;;;;;;;6.60;3.80;;;;;;;-2.93;90.45;92641.94;2089886;28;20478;-81
2021/04/05 03:45:05;;;;;;;7.72;3.60;;;;;;;-2.91;89.40;92639.72;2082880;28;20979;-81
2021/04/05 03:46:14;;;;;;;7.72;3.50;;;;;;;-2.95;89.42;92638.13;2084599;28;20533;-81
2021/04/05 03:47:28;;;;;;;7.38;3.45;;;;;;;-2.92;89.23;92638.22;2082972;28;21051;-79
2021/04/05 03:48:55;;;;;;;6.50;3.65;;;;;;;-2.98;89.38;92631.75;2090179;28;20033;-82
2021/04/05 03:50:13;;;;;;;5.80;3.25;;;;;;;-3.02;89.92;92630.91;2087872;28;20530;-82
2021/04/05 03:51:20;;;;;;;7.65;3.80;;;;;;;-2.90;89.87;92628.16;2086405;28;20495;-81
2021/04/05 03:52:30;;;;;;;5.60;3.10;;;;;;;-3.03;89.75;92629.38;2083797;28;20447;-80
2021/04/05 03:53:39;;;;;;;7.97;3.83;;;;;;;-2.96;89.10;92634.00;2084317;28;20448;-80
2021/04/05 03:54:47;;;;;;;6.55;3.58;;;;;;;-2.94;89.05;92631.81;2083763;28;20626;-80
2021/04/05 03:55:56;;;;;;;6.82;3.45;;;;;;;-3.01;88.98;92627.19;2083527;28;21198;-81
2021/04/05 03:56:58;;;;;;;5.60;3.60;;;;;;;-3.05;88.66;92632.34;2091251;28;20450;-81
2021/04/05 03:58:01;;;;;;;9.10;4.15;;;;;;;-3.01;88.80;92619.34;2090115;28;20067;-79
2021/04/05 03:59:05;;;;;;;9.07;3.50;;;;;;;-3.08;88.85;92619.19;2082009;28;21033;-79
2021/04/05 04:00:10;;;;;;;7.82;3.60;;;;;;;-3.00;88.44;92617.50;2082651;28;20436;-80
2021/04/05 04:01:15;;;;;;;6.80;3.50;;;;;;;-3.00;89.27;92612.28;2091153;28;20443;-80
2021/04/05 04:02:19;;;;;;;4.78;3.00;;;;;;;-3.10;89.17;92613.56;2090474;28;20546;-80
2021/04/05 04:03:32;;;;;;;7.68;3.47;;;;;;;-3.00;89.20;92601.81;2090547;28;20426;-80
2021/04/05 04:04:38;;;;;;;7.55;3.60;;;;;;;-3.01;88.87;92598.44;2081828;28;20463;-79
2021/04/05 04:06:02;;;;;;;7.53;3.45;;;;;;;-2.95;89.38;92601.53;2079592;28;21301;-80
2021/04/05 04:07:12;;;;;;;4.72;3.60;;;;;;;-2.97;89.63;92604.50;2095257;28;20462;-80
2021/04/05 04:09:19;;;;;;;6.43;3.58;;;;;;;-2.99;89.36;92598.09;2090181;28;21182;-80
2021/04/05 04:10:24;;;;;;;4.47;3.10;;;;;;;-2.87;89.94;92605.81;2090187;28;20513;-81
2021/04/05 04:11:27;;;;;;;7.07;3.60;;;;;;;-2.87;90.09;92592.75;2089990;28;20832;-80
2021/04/05 04:12:32;;;;;;;6.90;3.28;;;;;;;-2.83;90.25;92590.94;2090302;28;20466;-80
2021/04/05 04:13:52;;;;;;;6.47;3.60;;;;;;;-2.93;90.05;92592.25;2082067;28;20594;-80
2021/04/05 04:14:56;;;;;;;6.80;3.45;;;;;;;-2.95;89.88;92584.00;2078841;28;21004;-80
2021/04/05 04:15:57;;;;;;;9.55;4.35;;;;;;;-2.90;89.81;92581.09;2074161;28;20448;-80
2021/04/05 04:16:59;;;;;;;7.13;3.50;;;;;;;-2.93;90.27;92592.25;2081939;28;20456;-80
2021/04/05 04:18:02;;;;;;;7.55;3.42;;;;;;;-2.91;89.82;92587.44;2089894;28;20443;-79
2021/04/05 04:19:06;;;;;;;7.13;4.10;;;;;;;-2.93;89.94;92584.41;2081969;28;20481;-79
2021/04/05 04:20:10;;;;;;;10.23;3.90;;;;;;;-2.88;89.85;92578.16;2081949;28;20458;-79
2021/04/05 04:21:13;;;;;;;5.05;3.63;;;;;;;-2.93;89.75;92579.19;2075258;28;20452;-79
2021/04/05 04:22:14;;;;;;;6.53;3.70;;;;;;;-2.90;90.16;92575.88;2082037;28;20450;-80
2021/04/05 04:23:15;;;;;;;7.30;3.80;;;;;;;-2.93;89.60;92578.44;2081728;28;20483;-79
2021/04/05 04:24:15;;;;;;;8.73;3.80;;;;;;;-2.98;89.65;92578.72;2089496;28;20431;-79
2021/04/05 04:25:16;;;;;;;5.10;3.30;;;;;;;-2.97;89.91;92588.81;2089869;28;20693;-79
2021/04/05 04:26:16;;;;;;;6.88;3.85;;;;;;;-2.86;89.97;92579.31;2081493;28;20029;-80
2021/04/05 04:27:17;;;;;;;6.03;3.15;;;;;;;-2.88;88.93;92573.69;2088787;28;20036;-80
2021/04/05 04:28:17;;;;;;;10.02;4.00;;;;;;;-2.82;89.49;92574.91;2085532;28;20017;-79
2021/04/05 04:29:20;;;;;;;10.45;3.10;;;;;;;-2.85;89.03;92580.09;2097782;28;20481;-80
2021/04/05 04:30:33;;;;;;;8.00;3.78;;;;;;;-2.85;89.13;92570.38;2090097;28;20136;-78
2021/04/05 04:31:33;;;;;;;5.20;3.28;;;;;;;-2.90;89.77;92572.50;2076747;28;20448;-79
2021/04/05 04:32:34;;;;;;;6.30;3.20;;;;;;;-2.85;89.62;92567.78;2089834;28;20456;-79
2021/04/05 04:33:34;;;;;;;6.90;3.78;;;;;;;-2.85;89.19;92567.03;2098044;28;20021;-78
2021/04/05 04:34:35;;;;;;;9.40;3.40;;;;;;;-2.84;89.00;92566.66;2081216;28;20025;-79
2021/04/05 04:35:37;;;;;;;6.25;3.40;;;;;;;-2.90;89.37;92568.03;2080737;28;20120;-80
2021/04/05 04:36:38;;;;;;;5.32;3.63;;;;;;;-2.82;89.56;92563.69;2081896;28;20039;-80
2021/04/05 04:37:41;;;;;;;6.68;3.65;;;;;;;-2.84;89.45;92565.91;2093340;28;20459;-78
2021/04/05 04:38:42;;;;;;;8.73;4.13;;;;;;;-2.85;89.17;92567.78;2089822;28;20025;-79
2021/04/05 04:39:43;;;;;;;4.72;3.40;;;;;;;-2.91;89.81;92561.28;2081301;28;20523;-79
2021/04/05 04:40:45;;;;;;;5.45;3.60;;;;;;;-2.89;89.53;92564.34;2085526;28;20108;-80
2021/04/05 04:41:48;;;;;;;5.63;4.03;;;;;;;-2.71;89.72;92563.91;2093456;28;20897;-80
2021/04/05 04:42:49;;;;;;;8.75;4.22;;;;;;;-2.78;88.99;92561.91;2081685;28;21034;-79
2021/04/05 04:44:02;;;;;;;6.55;3.53;;;;;;;-2.76;89.41;92559.72;2077987;28;20464;-80
2021/04/05 04:45:03;;;;;;;6.15;3.88;;;;;;;-2.75;88.80;92557.84;2082810;28;20482;-79
2021/04/05 04:46:03;;;;;;;6.15;3.17;;;;;;;-2.79;88.89;92548.06;2088215;28;20447;-79
2021/04/05 04:47:04;;;;;;;5.18;3.33;;;;;;;-2.78;88.42;92554.81;2090941;28;20555;-79
2021/04/05 04:48:05;;;;;;;7.60;3.60;;;;;;;-2.81;88.33;92547.69;2083322;28;20028;-79
2021/04/05 04:49:08;;;;;;;5.15;3.60;;;;;;;-2.75;88.80;92553.38;2089268;28;20057;-80
2021/04/05 04:50:09;;;;;;;6.07;3.63;;;;;;;-2.68;88.35;92548.25;2090223;28;21036;-79
2021/04/05 04:51:10;;;;;;;9.70;3.80;;;;;;;-2.76;88.63;92545.88;2093410;28;20442;-80
2021/04/05 04:52:10;;;;;;;7.13;3.25;;;;;;;-2.73;88.66;92550.41;2097597;28;20439;-79
2021/04/05 04:53:11;;;;;;;8.48;3.83;;;;;;;-2.80;88.72;92559.66;2089621;28;20028;-78
2021/04/05 04:54:12;;;;;;;7.03;3.47;;;;;;;-2.80;89.27;92556.28;2089274;28;20017;-80
2021/04/05 04:55:13;;;;;;;7.72;3.92;;;;;;;-2.80;89.50;92558.88;2089482;28;20087;-80
2021/04/05 04:56:14;;;;;;;7.28;4.32;;;;;;;-2.84;89.67;92564.03;2080879;28;20029;-80
2021/04/05 04:57:17;;;;;;;5.97;3.83;;;;;;;-2.87;89.36;92556.13;2081376;28;20535;-79